Time;durP1;ratioP1;P1;durP2;ratioP2;P2;SDS_P1;SDS_P2;PMS_P1;PMS_P2;Temp;Humidity;BMP_temperature;BMP_pressure;BME280_temperature;BME280_humidity;BME280_pressure;Samples;Min_cycle;Max_cycle;Signal;HPM_P1;HPM_P2
2023/04/21 00:00:34;;;;;;;6.60;4.37;;;9.80;86.80;;;;;;10469742;28;20499;-84
2023/04/21 00:05:57;;;;;;;7.53;4.50;;;9.80;92.20;;;;;;10483645;28;20228;-83
2023/04/21 00:11:18;;;;;;;9.40;4.37;;;9.60;82.40;;;;;;10469951;28;20261;-85
2023/04/21 00:16:40;;;;;;;7.10;4.17;;;9.70;82.10;;;;;;10473320;28;20205;-84
2023/04/21 00:22:03;;;;;;;5.47;4.13;;;9.60;76.20;;;;;;10483164;28;20495;-84
2023/04/21 00:27:24;;;;;;;6.70;4.00;;;9.50;90.20;;;;;;10490690;28;20414;-85
2023/04/21 00:32:46;;;;;;;8.07;4.40;;;9.50;92.50;;;;;;10510000;28;20521;-84
2023/04/21 00:38:07;;;;;;;6.50;3.80;;;;;;;;;;10471976;28;20200;-84
2023/04/21 00:43:29;;;;;;;7.93;4.40;;;9.30;80.50;;;;;;10476897;28;20212;-85
2023/04/21 00:48:50;;;;;;;9.17;5.60;;;9.40;83.10;;;;;;10467892;28;20569;-86
2023/04/21 00:54:13;;;;;;;11.23;5.17;;;9.40;83.60;;;;;;10467702;28;20192;-85
2023/04/21 00:59:35;;;;;;;10.23;5.10;;;9.30;84.30;;;;;;10431455;28;20212;-84
2023/04/21 01:04:56;;;;;;;7.87;4.80;;;9.20;87.80;;;;;;10439879;28;20216;-84
2023/04/21 01:10:18;;;;;;;12.10;5.63;;;9.20;90.00;;;;;;10447053;28;20266;-84
2023/04/21 01:15:39;;;;;;;11.90;5.23;;;9.10;91.20;;;;;;10472201;28;20457;-85
2023/04/21 01:21:01;;;;;;;9.07;5.10;;;9.10;90.80;;;;;;10495422;28;20194;-85
2023/04/21 01:26:22;;;;;;;10.10;5.00;;;9.10;89.60;;;;;;10465639;28;20203;-84
2023/04/21 01:31:46;;;;;;;8.10;4.67;;;9.00;90.80;;;;;;10507604;28;20206;-84
2023/04/21 01:37:10;;;;;;;9.67;5.07;;;9.00;90.40;;;;;;10478281;28;20489;-84
2023/04/21 01:42:32;;;;;;;7.03;5.27;;;8.90;90.80;;;;;;10453714;28;20209;-83
2023/04/21 01:47:53;;;;;;;12.60;5.73;;;8.90;91.10;;;;;;10454254;28;20220;-84
2023/04/21 01:53:14;;;;;;;8.07;4.80;;;8.80;92.00;;;;;;10426225;28;20277;-84
2023/04/21 01:58:36;;;;;;;8.13;4.80;;;8.70;93.60;;;;;;10474336;28;20213;-83
2023/04/21 02:03:58;;;;;;;8.33;5.47;;;8.60;94.50;;;;;;10451353;28;20194;-84
2023/04/21 02:09:19;;;;;;;10.80;6.97;;;8.50;94.20;;;;;;10464728;28;20298;-83
2023/04/21 02:14:41;;;;;;;10.37;5.57;;;8.50;95.00;;;;;;10450055;28;20224;-84
2023/04/21 02:20:03;;;;;;;9.77;6.20;;;8.40;95.00;;;;;;10478729;28;20243;-84
2023/04/21 02:25:24;;;;;;;11.27;6.10;;;8.40;95.20;;;;;;10492808;28;20189;-83
2023/04/21 02:30:45;;;;;;;10.80;6.43;;;8.40;95.30;;;;;;10476422;28;20231;-84
2023/04/21 02:36:07;;;;;;;15.17;6.90;;;8.30;96.30;;;;;;10463923;28;20393;-84
2023/04/21 02:41:28;;;;;;;9.50;6.23;;;8.30;95.70;;;;;;10466269;28;20197;-84
2023/04/21 02:46:49;;;;;;;9.40;5.87;;;8.20;96.00;;;;;;10508194;28;20236;-86
2023/04/21 02:52:11;;;;;;;8.40;5.13;;;;;;;;;;10451385;28;20206;-85
2023/04/21 02:57:32;;;;;;;10.57;6.63;;;8.20;99.90;;;;;;10463012;28;20218;-86
2023/04/21 03:02:54;;;;;;;20.83;11.57;;;8.00;97.40;;;;;;10426880;28;20497;-86
2023/04/21 03:08:15;;;;;;;16.67;8.90;;;8.00;97.50;;;;;;10438170;28;20323;-84
2023/04/21 03:13:37;;;;;;;10.67;6.80;;;;;;;;;;10427042;28;20486;-84
2023/04/21 03:18:58;;;;;;;9.57;5.90;;;7.40;98.30;;;;;;10477287;28;20220;-85
2023/04/21 03:24:20;;;;;;;12.30;7.30;;;7.80;98.70;;;;;;10476891;28;20195;-85
2023/04/21 03:29:41;;;;;;;9.63;6.30;;;7.80;99.10;;;;;;10421448;28;20228;-84
2023/04/21 03:35:02;;;;;;;14.97;8.40;;;7.60;99.40;;;;;;10449733;28;20517;-84
2023/04/21 03:40:24;;;;;;;12.53;7.27;;;7.60;99.60;;;;;;10464560;28;20213;-86
2023/04/21 03:45:45;;;;;;;11.50;6.50;;;7.60;99.90;;;;;;10490731;28;20203;-84
2023/04/21 03:51:07;;;;;;;10.33;6.60;;;7.70;99.90;;;;;;10483976;28;20227;-84
2023/04/21 03:56:28;;;;;;;10.37;6.77;;;7.70;99.90;;;;;;10497350;28;20271;-85
2023/04/21 04:01:50;;;;;;;10.37;7.17;;;7.70;99.90;;;;;;10481338;28;20310;-84
2023/04/21 04:07:11;;;;;;;12.83;7.83;;;7.70;99.90;;;;;;10517365;28;20246;-85
2023/04/21 04:12:32;;;;;;;16.03;11.10;;;7.70;99.90;;;;;;10509103;28;20198;-85
2023/04/21 04:17:54;;;;;;;52.67;32.00;;;7.80;99.90;;;;;;10477438;28;20203;-85
2023/04/21 04:23:15;;;;;;;35.37;24.37;;;7.90;99.90;;;;;;10485546;28;20195;-83
2023/04/21 04:28:37;;;;;;;24.33;17.67;;;7.90;99.90;;;;;;10482758;28;20215;-84
2023/04/21 04:33:58;;;;;;;20.30;11.50;;;8.10;99.90;;;;;;10444974;28;20503;-84
2023/04/21 04:39:21;;;;;;;15.87;8.67;;;8.10;99.90;;;;;;10468135;28;20200;-85
2023/04/21 04:44:42;;;;;;;13.17;8.50;;;8.20;99.90;;;;;;10469835;28;20218;-86
2023/04/21 04:50:04;;;;;;;12.77;8.60;;;8.20;99.90;;;;;;10465340;28;20223;-86
2023/04/21 04:55:25;;;;;;;12.97;8.10;;;8.40;99.70;;;;;;10467425;28;20284;-85
2023/04/21 05:00:47;;;;;;;10.77;7.57;;;8.50;98.80;;;;;;10466931;28;20503;-85
2023/04/21 05:06:09;;;;;;;12.03;7.70;;;8.60;98.70;;;;;;10466825;28;20253;-85
2023/04/21 05:11:30;;;;;;;12.63;7.87;;;8.60;98.30;;;;;;10469680;28;20223;-86
2023/04/21 05:16:51;;;;;;;14.60;7.20;;;8.80;98.10;;;;;;10474422;28;20201;-84
2023/04/21 05:22:13;;;;;;;10.33;6.63;;;8.90;97.60;;;;;;10466395;28;20223;-85
2023/04/21 05:27:34;;;;;;;11.17;7.20;;;9.00;97.30;;;;;;10466248;28;20238;-85
2023/04/21 05:32:55;;;;;;;13.77;7.33;;;9.20;97.30;;;;;;10479877;28;20204;-85
2023/04/21 05:38:17;;;;;;;18.63;7.43;;;9.40;96.90;;;;;;10494442;28;20846;-85
2023/04/21 05:43:38;;;;;;;11.57;7.03;;;9.70;96.30;;;;;;10467840;28;20243;-85
2023/04/21 05:49:03;;;;;;;9.50;6.97;;;9.90;95.10;;;;;;10506561;28;20236;-85
2023/04/21 05:54:24;;;;;;;15.20;6.73;;;10.10;94.30;;;;;;10491224;28;20451;-85
2023/04/21 05:59:45;;;;;;;10.00;6.27;;;10.30;92.80;;;;;;10478070;28;20482;-85
2023/04/21 06:05:07;;;;;;;11.23;5.87;;;10.60;88.30;;;;;;10464775;28;20524;-86
2023/04/21 06:10:29;;;;;;;10.17;5.90;;;11.00;83.10;;;;;;10464837;28;20410;-86
2023/04/21 06:15:51;;;;;;;9.47;5.90;;;11.50;74.20;;;;;;10463270;28;20203;-86
2023/04/21 06:21:12;;;;;;;15.30;5.97;;;12.20;60.90;;;;;;10464230;28;20202;-86
2023/04/21 06:26:35;;;;;;;40.80;19.60;;;13.20;43.40;;;;;;10478553;28;20198;-85
2023/04/21 06:31:56;;;;;;;33.88;18.38;;;14.20;30.40;;;;;;10498180;28;20447;-86
2023/04/21 06:37:17;;;;;;;31.58;16.38;;;15.30;26.20;;;;;;10460312;28;20197;-86
2023/04/21 06:42:40;;;;;;;33.45;16.85;;;16.20;21.20;;;;;;10477625;28;20326;-84
2023/04/21 06:48:01;;;;;;;33.70;14.80;;;16.80;19.00;;;;;;10462430;28;20230;-85
2023/04/21 06:53:23;;;;;;;36.65;15.77;;;17.60;16.60;;;;;;10450156;28;20188;-85
2023/04/21 06:58:45;;;;;;;23.50;12.63;;;18.10;13.90;;;;;;10448616;28;20198;-85
2023/04/21 07:04:07;;;;;;;17.52;8.82;;;18.40;12.90;;;;;;10437965;28;20278;-85
2023/04/21 07:09:29;;;;;;;9.82;6.20;;;18.60;11.60;;;;;;10421498;28;20491;-84
2023/04/21 07:14:51;;;;;;;8.70;5.43;;;;;;;;;;10427801;28;20209;-84
2023/04/21 07:20:12;;;;;;;9.68;5.43;;;19.40;9.40;;;;;;10428895;28;20208;-85
2023/04/21 07:25:34;;;;;;;11.80;6.15;;;19.80;13.50;;;;;;10429321;28;20407;-84
2023/04/21 07:30:55;;;;;;;12.23;6.15;;;19.90;7.50;;;;;;10413803;28;20296;-82
2023/04/21 07:36:17;;;;;;;14.00;8.35;;;20.40;6.50;;;;;;10443815;28;20223;-82
2023/04/21 07:41:39;;;;;;;10.10;5.40;;;;;;;;;;10415603;28;20209;-84
2023/04/21 07:47:00;;;;;;;12.73;5.97;;;20.90;3.10;;;;;;10409212;28;20212;-82
2023/04/21 07:52:22;;;;;;;12.57;7.05;;;21.00;3.50;;;;;;10405985;28;20201;-85
2023/04/21 07:57:43;;;;;;;12.68;4.78;;;21.30;2.20;;;;;;10437653;28;20227;-84
2023/04/21 08:03:04;;;;;;;11.10;5.47;;;;;;;;;;10437761;28;20290;-82
2023/04/21 08:08:26;;;;;;;17.75;6.97;;;21.70;5.00;;;;;;10422860;28;20448;-82
2023/04/21 08:13:49;;;;;;;11.23;6.38;;;23.10;7.00;;;;;;10411828;28;20240;-84
2023/04/21 08:19:10;;;;;;;14.98;6.28;;;22.30;1.00;;;;;;10406306;28;20197;-84
2023/04/21 08:24:32;;;;;;;19.65;9.77;;;22.40;1.00;;;;;;10439911;28;20192;-84
2023/04/21 08:29:53;;;;;;;15.50;8.25;;;22.80;1.00;;;;;;10447218;28;20227;-83
2023/04/21 08:35:14;;;;;;;6.10;4.07;;;23.40;1.00;;;;;;10449223;28;20201;-83
2023/04/21 08:40:37;;;;;;;10.77;5.15;;;23.80;1.00;;;;;;10421480;28;20287;-83
2023/04/21 08:45:59;;;;;;;10.43;4.85;;;23.80;1.00;;;;;;10441058;28;20210;-84
2023/04/21 08:51:22;;;;;;;14.38;5.53;;;24.00;1.00;;;;;;10462373;28;20277;-83
2023/04/21 08:56:44;;;;;;;4.82;3.67;;;24.00;1.00;;;;;;10427840;28;20434;-83
2023/04/21 09:02:09;;;;;;;8.25;4.45;;;24.10;1.00;;;;;;10397878;28;20208;-84
2023/04/21 09:07:32;;;;;;;9.77;4.18;;;24.50;1.00;;;;;;10417460;28;20240;-83
2023/04/21 09:12:54;;;;;;;12.02;5.18;;;24.70;1.00;;;;;;10418350;28;20240;-83
2023/04/21 09:18:21;;;;;;;10.98;4.32;;;24.60;1.00;;;;;;10461432;28;20215;-83
2023/04/21 09:23:47;;;;;;;7.00;3.63;;;24.10;1.00;;;;;;10431577;28;20216;-83
2023/04/21 09:29:08;;;;;;;9.70;3.70;;;23.80;1.00;;;;;;10430778;28;20231;-82
2023/04/21 09:34:29;;;;;;;9.68;3.70;;;24.00;1.00;;;;;;10405454;28;20204;-84
2023/04/21 09:39:51;;;;;;;12.15;4.28;;;23.80;1.00;;;;;;10419629;28;20207;-86
2023/04/21 09:45:17;;;;;;;9.77;4.07;;;24.20;1.00;;;;;;10455661;28;20199;-85
2023/04/21 09:50:42;;;;;;;11.55;5.45;;;24.50;1.00;;;;;;10456251;28;20254;-84
2023/04/21 09:56:18;;;;;;;6.15;3.20;;;24.90;1.00;;;;;;10443557;28;20247;-84
2023/04/21 10:01:39;;;;;;;12.95;3.60;;;24.80;1.00;;;;;;10448355;28;20208;-86
2023/04/21 10:07:01;;;;;;;9.63;3.60;;;24.90;1.00;;;;;;10422311;28;20247;-84
2023/04/21 10:12:24;;;;;;;7.32;3.78;;;24.90;1.00;;;;;;10431737;28;20212;-85
2023/04/21 10:17:48;;;;;;;15.90;5.40;;;25.30;1.00;;;;;;10416394;28;20219;-83
2023/04/21 10:23:09;;;;;;;7.45;4.40;;;25.50;1.00;;;;;;10431635;28;20201;-83
2023/04/21 10:28:44;;;;;;;10.57;5.00;;;25.40;1.00;;;;;;10431939;28;20235;-84
2023/04/21 10:34:09;;;;;;;6.50;3.78;;;25.60;1.00;;;;;;10422605;28;20542;-85
2023/04/21 10:39:44;;;;;;;10.63;5.30;;;25.20;1.00;;;;;;10430877;28;20204;-86
2023/04/21 10:45:08;;;;;;;9.52;4.30;;;25.30;1.00;;;;;;10415293;28;20590;-85
2023/04/21 10:50:31;;;;;;;6.55;3.25;;;25.40;1.00;;;;;;10417593;28;20297;-85
2023/04/21 10:55:52;;;;;;;7.72;3.05;;;25.60;1.00;;;;;;10430928;28;20201;-87
2023/04/21 11:01:14;;;;;;;5.72;3.30;;;25.40;1.00;;;;;;10413811;28;20232;-82
2023/04/21 11:06:35;;;;;;;8.18;3.78;;;25.50;1.00;;;;;;10403434;28;20228;-81
2023/04/21 11:12:01;;;;;;;15.23;4.03;;;25.40;1.00;;;;;;10420734;28;20225;-84
2023/04/21 11:17:23;;;;;;;8.95;2.88;;;25.40;1.00;;;;;;10388864;28;20199;-85
2023/04/21 11:22:44;;;;;;;6.80;3.38;;;25.20;1.00;;;;;;10411505;28;20188;-86
2023/04/21 11:28:06;;;;;;;4.35;2.88;;;25.30;1.00;;;;;;10440368;28;20515;-88
2023/04/21 11:33:35;;;;;;;7.55;3.28;;;25.30;1.00;;;;;;10437268;28;20405;-82
2023/04/21 11:38:57;;;;;;;3.40;2.60;;;25.50;1.00;;;;;;10438018;28;20214;-85
2023/04/21 11:44:39;;;;;;;8.60;4.65;;;25.40;1.00;;;;;;10421000;28;20385;-82
2023/04/21 11:50:01;;;;;;;10.52;5.07;;;24.70;1.00;;;;;;10438208;28;20224;-82
2023/04/21 11:55:23;;;;;;;5.72;3.72;;;24.50;1.00;;;;;;10421399;28;20231;-81
2023/04/21 12:00:45;;;;;;;6.93;2.60;;;24.60;1.00;;;;;;10433290;28;20217;-86
2023/04/21 12:06:06;;;;;;;6.80;2.65;;;24.40;1.00;;;;;;10438309;28;20436;-82
2023/04/21 12:11:29;;;;;;;5.45;3.03;;;24.50;1.00;;;;;;10435843;28;20299;-83
2023/04/21 12:16:56;;;;;;;4.97;2.95;;;24.40;1.00;;;;;;10434615;28;20549;-82
2023/04/21 12:22:17;;;;;;;4.40;3.03;;;24.20;1.00;;;;;;10434053;28;20387;-81
2023/04/21 12:27:52;;;;;;;5.65;2.95;;;24.00;1.00;;;;;;10434073;28;20192;-81
2023/04/21 12:33:14;;;;;;;4.60;2.80;;;24.10;1.00;;;;;;10398854;28;20292;-83
2023/04/21 12:38:35;;;;;;;3.85;2.53;;;24.00;1.00;;;;;;10410172;28;20461;-82
2023/04/21 12:43:57;;;;;;;10.07;5.35;;;24.00;1.00;;;;;;10394964;28;20196;-86
2023/04/21 12:49:19;;;;;;;11.77;3.05;;;23.70;1.00;;;;;;10436665;28;20606;-85
2023/04/21 12:54:41;;;;;;;5.80;2.47;;;23.40;1.00;;;;;;10434581;28;20494;-82
2023/04/21 13:00:03;;;;;;;6.90;2.88;;;23.10;1.00;;;;;;10418785;28;20200;-88
2023/04/21 13:05:25;;;;;;;6.88;3.53;;;23.20;1.00;;;;;;10411091;28;20240;-84
2023/04/21 13:10:46;;;;;;;5.40;2.63;;;23.00;1.00;;;;;;10389640;28;20247;-87
2023/04/21 13:16:08;;;;;;;3.42;2.47;;;22.70;1.00;;;;;;10419498;28;20562;-87
2023/04/21 13:21:31;;;;;;;6.63;2.70;;;22.60;1.00;;;;;;10433434;28;20487;-85
2023/04/21 13:26:53;;;;;;;3.95;2.53;;;22.60;1.00;;;;;;10420998;28;20280;-84
2023/04/21 13:32:14;;;;;;;8.40;3.58;;;22.50;1.00;;;;;;10418724;28;20235;-88
2023/04/21 13:37:40;;;;;;;4.72;2.85;;;;;;;;;;10418142;28;20215;-85
2023/04/21 13:43:01;;;;;;;10.55;3.95;;;22.30;9.80;;;;;;10417092;28;20223;-82
2023/04/21 13:48:23;;;;;;;9.80;3.78;;;;;;;;;;10426219;28;20239;-84
2023/04/21 13:53:45;;;;;;;12.35;5.10;;;22.00;12.30;;;;;;10430517;28;20267;-88
2023/04/21 13:59:09;;;;;;;7.18;3.75;;;22.10;12.80;;;;;;10391444;28;20284;-84
2023/04/21 14:04:30;;;;;;;6.55;3.08;;;21.70;1.00;;;;;;10396161;28;20200;-81
2023/04/21 14:09:53;;;;;;;4.90;2.55;;;21.30;1.00;;;;;;10419161;28;20573;-83
2023/04/21 14:15:14;;;;;;;5.38;2.83;;;21.20;1.00;;;;;;10377544;28;20199;-84
2023/04/21 14:20:36;;;;;;;12.85;7.35;;;21.10;1.00;;;;;;10429394;28;20227;-84
2023/04/21 14:25:58;;;;;;;6.35;3.05;;;20.90;1.00;;;;;;10432577;28;20201;-83
2023/04/21 14:31:19;;;;;;;5.28;2.50;;;20.30;1.00;;;;;;10433354;28;20236;-84
2023/04/21 14:36:41;;;;;;;6.50;2.80;;;20.20;1.00;;;;;;10416134;28;20561;-82
2023/04/21 14:42:03;;;;;;;8.30;4.30;;;20.20;1.00;;;;;;10430563;28;20197;-82
2023/04/21 14:47:25;;;;;;;16.20;9.98;;;20.10;1.00;;;;;;10431300;28;20268;-82
2023/04/21 14:52:48;;;;;;;21.05;9.63;;;19.80;1.00;;;;;;10429291;28;20250;-82
2023/04/21 14:58:09;;;;;;;10.25;6.05;;;19.60;1.00;;;;;;10414965;28;20208;-84
2023/04/21 15:03:31;;;;;;;8.57;5.22;;;19.70;1.00;;;;;;10428773;28;20196;-80
2023/04/21 15:08:52;;;;;;;6.57;3.40;;;19.60;1.00;;;;;;10419528;28;20250;-85
2023/04/21 15:14:15;;;;;;;7.57;3.40;;;19.30;1.00;;;;;;10421691;28;20216;-85
2023/04/21 15:19:36;;;;;;;3.78;3.05;;;19.20;1.00;;;;;;10393437;28;20387;-84
2023/04/21 15:24:58;;;;;;;4.78;3.20;;;19.00;1.00;;;;;;10433915;28;20372;-84
2023/04/21 15:30:20;;;;;;;5.95;3.63;;;18.80;1.00;;;;;;10428219;28;20227;-84
2023/04/21 15:35:41;;;;;;;5.40;3.00;;;18.70;1.00;;;;;;10445979;28;20282;-84
2023/04/21 15:41:03;;;;;;;9.88;3.40;;;18.40;1.00;;;;;;10474125;28;20196;-84
2023/04/21 15:46:24;;;;;;;6.82;3.88;;;18.20;1.00;;;;;;10475664;28;20415;-84
2023/04/21 15:51:46;;;;;;;22.48;13.38;;;18.10;1.00;;;;;;10391740;28;20456;-85
2023/04/21 15:57:07;;;;;;;29.45;10.65;;;18.10;1.00;;;;;;10429569;28;20507;-85
2023/04/21 16:02:28;;;;;;;15.63;8.55;;;17.90;1.00;;;;;;10434550;28;20188;-84
2023/04/21 16:07:50;;;;;;;5.65;3.58;;;17.90;1.00;;;;;;10418445;28;20236;-84
2023/04/21 16:13:11;;;;;;;11.13;6.50;;;17.80;1.00;;;;;;10413254;28;20211;-84
2023/04/21 16:18:32;;;;;;;8.25;4.40;;;17.70;1.00;;;;;;10441685;28;20204;-84
2023/04/21 16:23:53;;;;;;;6.97;4.15;;;17.50;1.00;;;;;;10440680;28;20208;-84
2023/04/21 16:29:15;;;;;;;4.97;3.22;;;17.30;1.00;;;;;;10427032;28;20220;-84
2023/04/21 16:34:36;;;;;;;5.55;3.20;;;17.10;1.00;;;;;;10440962;28;20191;-83
2023/04/21 16:39:58;;;;;;;4.05;2.30;;;16.90;1.00;;;;;;10425620;28;20207;-83
2023/04/21 16:45:19;;;;;;;4.93;2.63;;;16.70;1.00;;;;;;10440082;28;20572;-83
2023/04/21 16:50:40;;;;;;;6.85;3.85;;;16.70;1.00;;;;;;10440217;28;20233;-84
2023/04/21 16:56:02;;;;;;;5.82;3.75;;;16.50;1.00;;;;;;10437908;28;20393;-84
2023/04/21 17:01:23;;;;;;;10.77;5.45;;;16.20;1.00;;;;;;10401005;28;20224;-84
2023/04/21 17:06:47;;;;;;;14.38;4.97;;;16.00;1.00;;;;;;10398540;28;20271;-84
2023/04/21 17:12:08;;;;;;;13.13;6.93;;;15.80;1.00;;;;;;10387130;28;20230;-85
2023/04/21 17:17:43;;;;;;;9.63;5.22;;;15.70;1.00;;;;;;10386928;28;20228;-82
2023/04/21 17:23:05;;;;;;;8.07;3.38;;;;;;;;;;10398110;28;20386;-84
2023/04/21 17:28:26;;;;;;;7.10;3.20;;;15.50;21.40;;;;;;10382861;28;20191;-83
2023/04/21 17:33:48;;;;;;;5.35;3.30;;;15.20;1.00;;;;;;10424567;28;20240;-83
2023/04/21 17:39:09;;;;;;;3.60;2.30;;;15.10;1.00;;;;;;10419729;28;20211;-83
2023/04/21 17:44:31;;;;;;;5.10;2.47;;;14.90;1.00;;;;;;10410526;28;20282;-83
2023/04/21 17:49:52;;;;;;;5.55;2.20;;;14.70;1.00;;;;;;10418711;28;20236;-83
2023/04/21 17:55:14;;;;;;;3.33;1.90;;;14.60;1.00;;;;;;10415635;28;20195;-84
2023/04/21 18:00:35;;;;;;;4.50;1.92;;;14.40;1.00;;;;;;10383022;28;20382;-84
2023/04/21 18:05:57;;;;;;;5.43;3.20;;;14.30;1.00;;;;;;10350316;28;20242;-84
2023/04/21 18:11:18;;;;;;;4.80;3.05;;;14.30;1.00;;;;;;10401899;28;20225;-83
2023/04/21 18:16:40;;;;;;;6.72;3.05;;;14.10;1.00;;;;;;10368273;28;20424;-84
2023/04/21 18:22:02;;;;;;;5.65;3.35;;;13.90;1.00;;;;;;10417044;28;20249;-83
2023/04/21 18:27:24;;;;;;;6.85;3.60;;;13.70;1.00;;;;;;10422160;28;20205;-84
2023/04/21 18:32:45;;;;;;;9.90;3.50;;;13.50;1.00;;;;;;10415407;28;20248;-84
2023/04/21 18:38:09;;;;;;;6.20;2.95;;;13.20;1.00;;;;;;10408506;28;20199;-83
2023/04/21 18:43:30;;;;;;;4.43;2.58;;;12.90;1.00;;;;;;10421794;28;20398;-83
2023/04/21 18:48:52;;;;;;;2.97;2.28;;;12.80;1.00;;;;;;10369101;28;20614;-84
2023/04/21 18:54:13;;;;;;;3.97;2.30;;;12.70;1.00;;;;;;10367568;28;20526;-84
2023/04/21 18:59:34;;;;;;;7.93;3.50;;;12.50;1.00;;;;;;10374470;28;20269;-84
2023/04/21 19:04:56;;;;;;;8.80;4.18;;;12.50;1.00;;;;;;10353952;28;20248;-84
2023/04/21 19:10:17;;;;;;;8.70;4.80;;;12.40;1.00;;;;;;10383419;28;20300;-83
2023/04/21 19:15:39;;;;;;;6.95;3.53;;;12.30;1.00;;;;;;10379935;28;20518;-83
2023/04/21 19:21:01;;;;;;;8.77;3.83;;;12.10;1.00;;;;;;10365928;28;20522;-83
2023/04/21 19:26:22;;;;;;;7.82;2.88;;;12.20;1.00;;;;;;10354414;28;20234;-84
2023/04/21 19:31:44;;;;;;;3.70;2.38;;;;;;;;;;10374106;28;20225;-83
2023/04/21 19:37:05;;;;;;;5.23;2.30;;;12.00;1.00;;;;;;10380095;28;20227;-83
2023/04/21 19:42:27;;;;;;;3.80;2.30;;;11.90;1.00;;;;;;10371554;28;20427;-83
2023/04/21 19:47:48;;;;;;;2.60;2.03;;;11.80;1.00;;;;;;10382936;28;20226;-83
2023/04/21 19:53:13;;;;;;;4.40;2.20;;;11.80;1.00;;;;;;10401400;28;20278;-84
2023/04/21 19:58:35;;;;;;;3.40;1.93;;;11.70;1.00;;;;;;10387933;28;20205;-84
2023/04/21 20:03:59;;;;;;;3.07;2.07;;;11.70;1.00;;;;;;10409133;28;20299;-84
2023/04/21 20:09:21;;;;;;;6.15;2.65;;;11.80;1.00;;;;;;10430684;28;20238;-85
2023/04/21 20:14:42;;;;;;;4.37;2.30;;;11.70;1.00;;;;;;10377871;28;20276;-84
2023/04/21 20:20:05;;;;;;;2.70;1.90;;;11.60;1.00;;;;;;10409678;28;20206;-83
2023/04/21 20:25:27;;;;;;;3.50;2.22;;;11.50;1.00;;;;;;10386703;28;20273;-83
2023/04/21 20:30:49;;;;;;;4.43;2.97;;;11.50;1.00;;;;;;10400574;28;20228;-84
2023/04/21 20:36:11;;;;;;;2.85;2.17;;;;;;;;;;10359546;28;20207;-82
2023/04/21 20:41:32;;;;;;;4.63;2.80;;;11.50;10.60;;;;;;10345189;28;20226;-82
2023/04/21 20:46:53;;;;;;;5.60;3.13;;;11.50;10.30;;;;;;10358242;28;20504;-83
2023/04/21 20:52:15;;;;;;;8.60;4.37;;;11.50;10.60;;;;;;10358410;28;20236;-83
2023/04/21 20:57:37;;;;;;;7.83;4.17;;;11.50;11.10;;;;;;10385267;28;20217;-83
2023/04/21 21:02:58;;;;;;;7.80;3.43;;;11.40;11.80;;;;;;10358869;28;20216;-83
2023/04/21 21:08:19;;;;;;;7.93;3.70;;;11.30;13.60;;;;;;10358300;28;20569;-83
2023/04/21 21:13:41;;;;;;;5.37;3.10;;;11.30;15.20;;;;;;10378057;28;20232;-82
2023/04/21 21:19:02;;;;;;;8.17;4.17;;;11.30;16.80;;;;;;10398193;28;20260;-83
2023/04/21 21:24:25;;;;;;;7.70;3.60;;;11.20;18.70;;;;;;10370738;28;20199;-83
2023/04/21 21:29:46;;;;;;;7.00;3.92;;;11.30;19.60;;;;;;10397287;28;20229;-82
2023/04/21 21:35:09;;;;;;;9.03;4.50;;;11.20;21.00;;;;;;10397812;28;20201;-83
2023/04/21 21:40:30;;;;;;;8.90;4.90;;;;;;;;;;10397548;28;20272;-83
2023/04/21 21:45:52;;;;;;;8.20;5.25;;;11.00;16.70;;;;;;10398841;28;20418;-84
2023/04/21 21:51:14;;;;;;;8.53;5.10;;;10.90;13.70;;;;;;10383223;28;20235;-85
2023/04/21 21:56:35;;;;;;;7.27;5.03;;;10.90;22.10;;;;;;10383464;28;20437;-82
2023/04/21 22:01:57;;;;;;;10.73;6.67;;;10.70;18.80;;;;;;10352906;28;20431;-84
2023/04/21 22:07:18;;;;;;;12.60;6.57;;;;;;;;;;10362194;28;20228;-84
2023/04/21 22:12:40;;;;;;;8.70;5.67;;;;;;;;;;10382069;28;20258;-84
2023/04/21 22:18:02;;;;;;;9.93;4.90;;;;;;;;;;10409117;28;20211;-85
2023/04/21 22:23:24;;;;;;;10.97;6.93;;;;;;;;;;10423408;28;20191;-84
2023/04/21 22:28:50;;;;;;;14.17;7.80;;;;;;;;;;10422477;28;20429;-85
2023/04/21 22:34:15;;;;;;;11.70;7.70;;;;;;;;;;10414928;28;20212;-84
2023/04/21 22:39:37;;;;;;;15.70;8.17;;;;;;;;;;10422461;28;20196;-85
2023/04/21 22:45:00;;;;;;;13.47;8.67;;;;;;;;;;10408256;28;20199;-85
2023/04/21 22:50:21;;;;;;;19.30;9.93;;;;;;;;;;10394852;28;20445;-84
2023/04/21 22:55:43;;;;;;;29.73;17.77;;;;;;;;;;10397587;28;20216;-84
2023/04/21 23:01:05;;;;;;;27.40;16.03;;;;;;;;;;10394786;28;20541;-85
2023/04/21 23:06:27;;;;;;;22.30;13.93;;;;;;;;;;10392369;28;20263;-84
2023/04/21 23:11:48;;;;;;;21.57;12.00;;;;;;;;;;10376476;28;20560;-85
2023/04/21 23:17:10;;;;;;;21.33;10.07;;;;;;;;;;10356428;28;20262;-85
2023/04/21 23:22:31;;;;;;;15.43;8.90;;;9.70;36.30;;;;;;10360770;28;20246;-84
2023/04/21 23:27:53;;;;;;;16.57;8.90;;;;;;;;;;10421086;28;20215;-84
2023/04/21 23:33:14;;;;;;;17.47;9.30;;;9.60;28.90;;;;;;10421218;28;20243;-84
2023/04/21 23:38:36;;;;;;;18.63;9.93;;;;;;;;;;10396542;28;20192;-85
2023/04/21 23:43:57;;;;;;;19.77;10.07;;;;;;;;;;10392556;28;20231;-85
2023/04/21 23:49:18;;;;;;;22.30;10.13;;;9.20;22.30;;;;;;10393696;28;20506;-84
2023/04/21 23:54:39;;;;;;;16.43;9.40;;;9.20;22.90;;;;;;10392817;28;20273;-84
